Time;durP1;ratioP1;P1;durP2;ratioP2;P2;SDS_P1;SDS_P2;PMS_P1;PMS_P2;Temp;Humidity;BMP_temperature;BMP_pressure;BME280_temperature;BME280_humidity;BME280_pressure;Samples;Min_cycle;Max_cycle;Signal;HPM_P1;HPM_P2
2023/07/27 00:00:27;;;;;;;1999.90;999.90;;;19.30;98.20;;;;;;5051823;28;20406;-72
2023/07/27 00:02:53;;;;;;;1999.90;999.90;;;19.30;99.30;;;;;;5051549;28;20253;-74
2023/07/27 00:05:18;;;;;;;1999.90;999.90;;;19.20;99.80;;;;;;5051736;28;20206;-73
2023/07/27 00:07:44;;;;;;;1999.90;999.90;;;19.20;99.90;;;;;;5051721;28;20182;-73
2023/07/27 00:10:10;;;;;;;1999.90;999.90;;;19.10;99.90;;;;;;5051585;28;20199;-72
2023/07/27 00:12:35;;;;;;;1999.90;999.90;;;19.10;99.90;;;;;;5053280;28;20178;-73
2023/07/27 00:15:01;;;;;;;1999.90;999.90;;;19.00;99.90;;;;;;5055736;28;20190;-74
2023/07/27 00:17:26;;;;;;;1999.90;999.90;;;19.00;99.90;;;;;;5055747;28;20187;-73
2023/07/27 00:19:52;;;;;;;1999.90;999.90;;;19.00;99.90;;;;;;5055811;28;20176;-73
2023/07/27 00:22:17;;;;;;;1999.90;999.90;;;19.00;99.90;;;;;;5055568;28;20194;-73
2023/07/27 00:24:43;;;;;;;1999.90;999.90;;;18.90;99.90;;;;;;5055516;28;20197;-73
2023/07/27 00:27:09;;;;;;;1999.90;999.90;;;18.90;99.90;;;;;;5055762;28;20691;-73
2023/07/27 00:29:34;;;;;;;1999.90;999.90;;;18.90;99.90;;;;;;5055581;28;20175;-72
2023/07/27 00:32:00;;;;;;;1999.90;999.90;;;18.90;99.90;;;;;;5055297;28;20202;-74
2023/07/27 00:34:25;;;;;;;1999.90;999.90;;;18.90;99.90;;;;;;5055440;28;20163;-73
2023/07/27 00:36:51;;;;;;;1999.90;999.90;;;18.80;99.90;;;;;;5055526;28;20177;-73
2023/07/27 00:39:16;;;;;;;1999.90;999.90;;;18.80;99.90;;;;;;5055427;28;20204;-73
2023/07/27 00:41:43;;;;;;;1999.90;999.90;;;18.80;99.90;;;;;;5055086;28;20172;-73
2023/07/27 00:44:09;;;;;;;1999.90;999.90;;;18.80;99.90;;;;;;5055464;28;20168;-72
2023/07/27 00:46:36;;;;;;;1999.90;999.90;;;18.80;99.90;;;;;;5055211;28;20835;-73
2023/07/27 00:49:05;;;;;;;1999.90;999.90;;;18.80;99.90;;;;;;5055252;28;20465;-73
2023/07/27 00:51:36;;;;;;;1999.90;999.90;;;18.80;99.90;;;;;;5054869;28;20440;-73
2023/07/27 00:54:03;;;;;;;1999.90;999.90;;;18.80;99.90;;;;;;5055103;28;20498;-73
2023/07/27 00:56:30;;;;;;;1999.90;999.90;;;18.90;99.90;;;;;;5055021;28;20432;-72
2023/07/27 00:58:59;;;;;;;1999.90;999.90;;;18.80;99.90;;;;;;5055115;28;20403;-73
2023/07/27 01:01:25;;;;;;;1999.90;999.90;;;18.90;99.90;;;;;;5054819;28;21037;-73
2023/07/27 01:03:51;;;;;;;1999.90;999.90;;;18.90;99.90;;;;;;5055091;28;20425;-73
2023/07/27 01:06:17;;;;;;;1999.90;999.90;;;18.80;99.90;;;;;;5054821;28;20429;-72
2023/07/27 01:08:43;;;;;;;1999.90;999.90;;;18.80;99.90;;;;;;5054973;28;21119;-73
2023/07/27 01:11:31;;;;;;;1999.90;999.90;;;18.90;99.90;;;;;;5054723;28;20247;-73
2023/07/27 01:14:23;;;;;;;1999.90;999.90;;;18.90;99.90;;;;;;5053632;28;20416;-73
2023/07/27 01:17:03;;;;;;;1999.90;999.90;;;18.90;99.90;;;;;;5054726;28;20772;-73
2023/07/27 01:19:29;;;;;;;1999.90;999.90;;;18.90;99.90;;;;;;5054576;28;20565;-73
2023/07/27 01:22:27;;;;;;;1999.90;999.90;;;18.90;99.90;;;;;;5054406;28;20503;-73
2023/07/27 01:25:12;;;;;;;1999.90;999.90;;;18.90;99.90;;;;;;5054370;28;20190;-73
2023/07/27 01:28:15;;;;;;;1999.90;999.90;;;19.00;99.90;;;;;;5054591;28;20977;-72
2023/07/27 01:30:52;;;;;;;1999.90;999.90;;;18.90;99.90;;;;;;5054350;28;20531;-74
2023/07/27 01:33:24;;;;;;;1999.90;999.90;;;19.00;99.90;;;;;;5054303;28;20391;-74
2023/07/27 01:36:10;;;;;;;1999.90;999.90;;;19.00;99.90;;;;;;5054439;28;20428;-72
2023/07/27 01:38:39;;;;;;;1999.90;999.90;;;18.90;99.90;;;;;;5054450;28;20403;-71
2023/07/27 01:41:08;;;;;;;1999.90;999.90;;;19.00;99.90;;;;;;5054111;28;20460;-72
2023/07/27 01:43:36;;;;;;;1999.90;999.90;;;19.00;99.90;;;;;;5054290;28;20414;-72
2023/07/27 01:46:03;;;;;;;1999.90;999.90;;;19.00;99.90;;;;;;5054132;28;20441;-72
2023/07/27 01:48:30;;;;;;;1999.90;999.90;;;19.10;99.90;;;;;;5054188;28;20410;-72
2023/07/27 01:50:57;;;;;;;1999.90;999.90;;;19.10;99.90;;;;;;5053817;28;20802;-73
2023/07/27 01:53:26;;;;;;;1999.90;999.90;;;19.20;99.90;;;;;;5054114;28;20395;-72
2023/07/27 01:55:52;;;;;;;1999.90;999.90;;;19.20;99.90;;;;;;5053871;28;20425;-71
2023/07/27 01:58:19;;;;;;;1999.90;999.90;;;19.10;99.90;;;;;;5054194;28;20412;-71
2023/07/27 02:00:46;;;;;;;1999.90;999.90;;;19.10;99.90;;;;;;5053961;28;20413;-71
2023/07/27 02:03:12;;;;;;;1999.90;999.90;;;19.10;99.90;;;;;;5053867;28;20406;-71
2023/07/27 02:05:37;;;;;;;1999.90;999.90;;;19.10;99.90;;;;;;5053812;28;20791;-71
2023/07/27 02:08:03;;;;;;;1999.90;999.90;;;19.00;99.90;;;;;;5053913;28;20198;-71
2023/07/27 02:10:30;;;;;;;1999.90;999.90;;;18.90;99.90;;;;;;5053752;28;20194;-72
2023/07/27 02:13:11;;;;;;;1999.90;999.90;;;18.90;99.90;;;;;;5053372;28;20170;-73
2023/07/27 02:15:46;;;;;;;1999.90;999.90;;;18.70;99.90;;;;;;5053658;28;20446;-72
2023/07/27 02:18:18;;;;;;;1999.90;999.90;;;18.60;99.90;;;;;;5053495;28;20425;-71
2023/07/27 02:20:46;;;;;;;1999.90;999.90;;;18.50;99.90;;;;;;5053611;28;20417;-71
2023/07/27 02:23:13;;;;;;;1999.90;999.90;;;18.40;99.90;;;;;;5053618;28;20763;-72
2023/07/27 02:25:38;;;;;;;1999.90;999.90;;;18.30;99.90;;;;;;5053401;28;20505;-71
2023/07/27 02:28:04;;;;;;;1999.90;999.90;;;18.20;99.90;;;;;;5053383;28;20407;-71
2023/07/27 02:30:30;;;;;;;1999.90;999.90;;;18.20;99.90;;;;;;5053381;28;20218;-71
2023/07/27 02:32:55;;;;;;;1999.90;999.90;;;18.10;99.90;;;;;;5053139;28;20170;-71
2023/07/27 02:35:21;;;;;;;1999.90;999.90;;;18.00;99.90;;;;;;5052586;28;20266;-71
2023/07/27 02:37:47;;;;;;;1999.90;999.90;;;18.00;99.90;;;;;;5053182;28;20164;-72
2023/07/27 02:40:12;;;;;;;1999.90;999.90;;;17.90;99.90;;;;;;5053170;28;20656;-72
2023/07/27 02:42:38;;;;;;;1999.90;999.90;;;17.80;99.90;;;;;;5052964;28;20163;-72
2023/07/27 02:45:04;;;;;;;1999.90;999.90;;;17.80;99.90;;;;;;5053033;28;20215;-71
2023/07/27 02:47:29;;;;;;;1999.90;999.90;;;17.70;99.90;;;;;;5053095;28;20161;-74
2023/07/27 02:49:55;;;;;;;1999.90;999.90;;;17.70;99.90;;;;;;5052951;28;20407;-73
2023/07/27 02:52:20;;;;;;;1999.90;999.90;;;17.60;99.90;;;;;;5052685;28;20171;-73
2023/07/27 02:54:46;;;;;;;1999.90;999.90;;;17.60;99.90;;;;;;5052680;28;20536;-73
2023/07/27 02:57:12;;;;;;;1999.90;999.90;;;17.60;99.90;;;;;;5053335;28;20203;-73
2023/07/27 02:59:37;;;;;;;1999.90;999.90;;;17.60;99.90;;;;;;5052830;28;20165;-72
2023/07/27 03:02:03;;;;;;;1999.90;999.90;;;17.60;99.90;;;;;;5052557;28;20164;-73
2023/07/27 03:04:28;;;;;;;1999.90;999.90;;;17.30;99.90;;;;;;5052692;28;20275;-72
2023/07/27 03:06:54;;;;;;;1999.90;999.90;;;17.50;99.90;;;;;;5052614;28;20176;-73
2023/07/27 03:09:19;;;;;;;1999.90;999.90;;;17.50;99.90;;;;;;5052645;28;20197;-72
2023/07/27 03:11:45;;;;;;;1999.90;999.90;;;17.50;99.90;;;;;;5052225;28;20195;-72
2023/07/27 03:14:11;;;;;;;1999.90;999.90;;;17.40;99.90;;;;;;5052584;28;20176;-71
2023/07/27 03:16:36;;;;;;;1999.90;999.90;;;17.40;99.90;;;;;;5052479;28;20233;-73
2023/07/27 03:19:02;;;;;;;1999.90;999.90;;;17.40;99.90;;;;;;5052454;28;20261;-73
2023/07/27 03:21:27;;;;;;;1999.90;999.90;;;17.30;99.90;;;;;;5052058;28;20593;-72
2023/07/27 03:23:53;;;;;;;1999.90;999.90;;;17.20;99.90;;;;;;5052362;28;20206;-72
2023/07/27 03:26:19;;;;;;;1999.90;999.90;;;17.20;99.90;;;;;;5052270;28;20189;-74
2023/07/27 03:28:44;;;;;;;1999.90;999.90;;;17.20;99.90;;;;;;5052535;28;20175;-73
2023/07/27 03:31:22;;;;;;;1999.90;999.90;;;17.10;99.90;;;;;;5051832;28;20330;-73
2023/07/27 03:33:48;;;;;;;1999.90;999.90;;;17.00;99.90;;;;;;5052292;28;20178;-73
2023/07/27 03:36:16;;;;;;;1999.90;999.90;;;17.00;99.90;;;;;;5052047;28;20418;-73
2023/07/27 03:38:41;;;;;;;1999.90;999.90;;;16.90;99.90;;;;;;5052156;28;20404;-71
2023/07/27 03:41:07;;;;;;;1999.90;999.90;;;16.80;99.90;;;;;;5051949;28;20413;-73
2023/07/27 03:43:32;;;;;;;1999.90;999.90;;;16.80;99.90;;;;;;5052136;28;20516;-73
2023/07/27 03:45:58;;;;;;;1999.90;999.90;;;16.80;99.90;;;;;;5051929;28;20670;-72
2023/07/27 03:48:25;;;;;;;1999.90;999.90;;;16.70;99.90;;;;;;5052141;28;20256;-72
2023/07/27 03:50:52;;;;;;;1999.90;999.90;;;16.70;99.90;;;;;;5051736;28;20194;-71
2023/07/27 03:53:17;;;;;;;1999.90;999.90;;;16.70;99.90;;;;;;5052024;28;20891;-73
2023/07/27 03:55:43;;;;;;;1999.90;999.90;;;16.70;99.90;;;;;;5052148;28;20421;-73
2023/07/27 03:58:08;;;;;;;1999.90;999.90;;;16.70;99.90;;;;;;5051910;28;20182;-73
2023/07/27 04:00:34;;;;;;;1999.90;999.90;;;16.70;99.90;;;;;;5051937;28;20258;-71
2023/07/27 04:03:00;;;;;;;1999.90;999.90;;;16.60;99.90;;;;;;5051637;28;20234;-72
2023/07/27 04:05:25;;;;;;;1999.90;999.90;;;16.60;99.90;;;;;;5051689;28;20570;-73
2023/07/27 04:07:52;;;;;;;1999.90;999.90;;;16.60;99.90;;;;;;5051796;28;20629;-72
2023/07/27 04:10:18;;;;;;;1999.90;999.90;;;16.60;99.90;;;;;;5051837;28;20250;-72
2023/07/27 04:12:43;;;;;;;1999.90;999.90;;;16.60;99.90;;;;;;5051523;28;20765;-72
2023/07/27 04:15:09;;;;;;;1999.90;999.90;;;16.50;99.90;;;;;;5051613;28;20421;-72
2023/07/27 04:17:35;;;;;;;1999.90;999.90;;;16.50;99.90;;;;;;5051658;28;20191;-71
2023/07/27 04:20:01;;;;;;;1999.90;999.90;;;16.50;99.90;;;;;;5051662;28;20974;-72
2023/07/27 04:22:26;;;;;;;1999.90;999.90;;;16.40;99.90;;;;;;5051450;28;20254;-71
2023/07/27 04:24:52;;;;;;;1999.90;999.90;;;16.40;99.90;;;;;;5051553;28;20181;-71
2023/07/27 04:27:18;;;;;;;1999.90;999.90;;;16.30;99.90;;;;;;5051813;28;20166;-71
2023/07/27 04:29:43;;;;;;;1999.90;999.90;;;16.40;99.90;;;;;;5051677;28;20254;-72
2023/07/27 04:32:09;;;;;;;1999.90;999.90;;;16.30;99.90;;;;;;5051476;28;20661;-70
2023/07/27 04:34:34;;;;;;;1999.90;999.90;;;16.20;99.90;;;;;;5051592;28;20164;-70
2023/07/27 04:37:00;;;;;;;1999.90;999.90;;;16.30;99.90;;;;;;5051816;28;20184;-71
2023/07/27 04:39:26;;;;;;;1999.90;999.90;;;16.30;99.90;;;;;;5052004;28;20173;-71
2023/07/27 04:41:52;;;;;;;1999.90;999.90;;;16.30;99.90;;;;;;5051356;28;20169;-71
2023/07/27 04:44:17;;;;;;;1999.90;999.90;;;16.30;99.90;;;;;;5051711;28;20411;-70
2023/07/27 04:46:43;;;;;;;1999.90;999.90;;;16.20;99.90;;;;;;5051613;28;20657;-70
2023/07/27 04:49:08;;;;;;;1999.90;999.90;;;16.20;99.90;;;;;;5051535;28;20254;-71
2023/07/27 04:51:34;;;;;;;1999.90;999.90;;;16.30;99.90;;;;;;5051373;28;20280;-71
2023/07/27 04:54:01;;;;;;;1999.90;999.90;;;16.20;99.90;;;;;;5051612;28;20159;-71
2023/07/27 04:56:26;;;;;;;1999.90;999.90;;;16.20;99.90;;;;;;5051571;28;20429;-71
2023/07/27 04:58:52;;;;;;;1999.90;999.90;;;16.20;99.90;;;;;;5053840;28;20403;-71
2023/07/27 05:01:18;;;;;;;1999.90;999.90;;;16.20;99.90;;;;;;5054779;28;20255;-72
2023/07/27 05:03:43;;;;;;;1999.90;999.90;;;16.10;99.90;;;;;;5054940;28;20691;-72
2023/07/27 05:06:09;;;;;;;1999.90;999.90;;;16.10;99.90;;;;;;5054909;28;20188;-72
2023/07/27 05:08:34;;;;;;;1999.90;999.90;;;16.10;99.90;;;;;;5054510;28;20590;-72
2023/07/27 05:11:08;;;;;;;1999.90;999.90;;;16.10;99.90;;;;;;5054637;28;20202;-73
2023/07/27 05:13:34;;;;;;;1999.90;999.90;;;16.10;99.90;;;;;;5054924;28;20168;-72
2023/07/27 05:16:00;;;;;;;1999.90;999.90;;;16.00;99.90;;;;;;5054714;28;20421;-72
2023/07/27 05:18:26;;;;;;;1999.90;999.90;;;16.00;99.90;;;;;;5054572;28;20437;-72
2023/07/27 05:20:51;;;;;;;1999.90;999.90;;;16.00;99.90;;;;;;5054611;28;20454;-72
2023/07/27 05:23:17;;;;;;;1999.90;999.90;;;16.00;99.90;;;;;;5054559;28;20170;-72
2023/07/27 05:25:43;;;;;;;1999.90;999.90;;;16.00;99.90;;;;;;5054560;28;20194;-72
2023/07/27 05:28:08;;;;;;;1999.90;999.90;;;16.00;99.90;;;;;;5054617;28;20177;-72
2023/07/27 05:30:34;;;;;;;1999.90;999.90;;;16.00;99.90;;;;;;5054456;28;20235;-72
2023/07/27 05:32:59;;;;;;;1999.90;999.90;;;16.00;99.90;;;;;;5054127;28;20173;-72
2023/07/27 05:35:25;;;;;;;1999.90;999.90;;;16.10;99.90;;;;;;5054362;28;20190;-71
2023/07/27 05:37:50;;;;;;;1999.90;999.90;;;16.00;99.90;;;;;;5054394;28;20177;-72
2023/07/27 05:40:16;;;;;;;1999.90;999.90;;;16.00;99.90;;;;;;5054360;28;20190;-72
2023/07/27 05:42:43;;;;;;;1999.90;999.90;;;16.10;99.90;;;;;;5054116;28;20177;-72
2023/07/27 05:45:09;;;;;;;1999.90;999.90;;;16.10;99.90;;;;;;5054144;28;20187;-73
2023/07/27 05:47:35;;;;;;;1999.90;999.90;;;16.10;99.90;;;;;;5054187;28;20432;-72
2023/07/27 05:50:01;;;;;;;1999.90;999.90;;;16.20;99.90;;;;;;5054187;28;20413;-72
2023/07/27 05:52:27;;;;;;;1999.90;999.90;;;16.20;99.90;;;;;;5054011;28;20442;-72
2023/07/27 05:54:53;;;;;;;1999.90;999.90;;;16.30;99.90;;;;;;5054035;28;20442;-72
2023/07/27 05:57:18;;;;;;;1999.90;999.90;;;16.30;99.90;;;;;;5054076;28;20253;-73
2023/07/27 05:59:44;;;;;;;1999.90;999.90;;;16.30;99.90;;;;;;5054017;28;20163;-72
2023/07/27 06:02:10;;;;;;;1999.90;999.90;;;16.40;99.90;;;;;;5053564;28;20228;-71
2023/07/27 06:04:35;;;;;;;1999.90;999.90;;;16.50;99.90;;;;;;5053878;28;20180;-73
2023/07/27 06:07:01;;;;;;;1999.90;999.90;;;16.30;99.90;;;;;;5053815;28;20168;-73
2023/07/27 06:09:26;;;;;;;1999.90;999.90;;;16.40;99.90;;;;;;5052895;28;20168;-72
2023/07/27 06:11:52;;;;;;;1999.90;999.90;;;16.40;99.90;;;;;;5053314;28;20205;-71
2023/07/27 06:14:18;;;;;;;1999.90;999.90;;;16.40;99.90;;;;;;5053807;28;20718;-73
2023/07/27 06:16:44;;;;;;;1999.90;999.90;;;16.40;99.90;;;;;;5053480;28;20464;-71
2023/07/27 06:19:10;;;;;;;1999.90;999.90;;;16.40;99.90;;;;;;5053563;28;20849;-73
2023/07/27 06:21:35;;;;;;;1999.90;999.90;;;16.40;99.90;;;;;;5053360;28;20171;-73
2023/07/27 06:24:01;;;;;;;1999.90;999.90;;;16.40;99.90;;;;;;5053505;28;20637;-73
2023/07/27 06:26:27;;;;;;;1999.90;999.90;;;16.40;99.90;;;;;;5053374;28;20327;-73
2023/07/27 06:28:53;;;;;;;1999.90;999.90;;;16.40;99.90;;;;;;5053451;28;20167;-71
2023/07/27 06:31:18;;;;;;;1999.90;999.90;;;16.50;99.90;;;;;;5052898;28;20449;-71
2023/07/27 06:33:45;;;;;;;1999.90;999.90;;;16.60;99.90;;;;;;5053484;28;20193;-72
2023/07/27 06:36:14;;;;;;;1999.90;999.90;;;16.70;99.90;;;;;;5053398;28;20426;-72
2023/07/27 06:38:40;;;;;;;1999.90;999.90;;;16.80;99.90;;;;;;5053189;28;20182;-73
2023/07/27 06:41:05;;;;;;;1999.90;999.90;;;16.80;99.90;;;;;;5052994;28;20413;-72
2023/07/27 06:43:31;;;;;;;1999.90;999.90;;;16.90;99.90;;;;;;5053136;28;20831;-72
2023/07/27 06:45:57;;;;;;;1999.90;999.90;;;16.90;99.90;;;;;;5052913;28;20195;-71
2023/07/27 06:48:23;;;;;;;1999.90;999.90;;;17.00;99.90;;;;;;5053106;28;20418;-72
2023/07/27 06:50:48;;;;;;;1999.90;999.90;;;17.10;99.90;;;;;;5052868;28;20539;-72
2023/07/27 06:53:14;;;;;;;1999.90;999.90;;;17.10;99.90;;;;;;5052766;28;20165;-72
2023/07/27 06:55:40;;;;;;;1999.90;999.90;;;17.20;99.90;;;;;;5052721;28;20192;-72
2023/07/27 06:58:05;;;;;;;1999.90;999.90;;;17.30;99.90;;;;;;5052948;28;20267;-71
2023/07/27 07:00:34;;;;;;;1999.90;999.90;;;17.30;99.90;;;;;;5052715;28;20663;-73
2023/07/27 07:02:59;;;;;;;1999.90;999.90;;;17.40;99.90;;;;;;5052618;28;20646;-72
2023/07/27 07:05:25;;;;;;;1999.90;999.90;;;17.40;99.90;;;;;;5052375;28;20439;-72
2023/07/27 07:07:51;;;;;;;1999.90;999.90;;;17.40;99.90;;;;;;5052758;28;20180;-73
2023/07/27 07:10:18;;;;;;;1999.90;999.90;;;17.40;99.90;;;;;;5052566;28;20644;-73
2023/07/27 07:12:44;;;;;;;1999.90;999.90;;;17.50;99.90;;;;;;5051978;28;20182;-72
2023/07/27 07:15:10;;;;;;;1999.90;999.90;;;17.50;99.90;;;;;;5052036;28;20426;-72
2023/07/27 07:17:36;;;;;;;1999.90;999.90;;;17.60;99.90;;;;;;5052213;28;20186;-71
2023/07/27 07:20:05;;;;;;;1999.90;999.90;;;17.50;99.90;;;;;;5052368;28;20409;-73
2023/07/27 07:22:31;;;;;;;1999.90;999.90;;;17.60;99.90;;;;;;5051845;28;20408;-72
2023/07/27 07:24:57;;;;;;;1999.90;999.90;;;17.60;99.90;;;;;;5052240;28;20428;-73
2023/07/27 07:27:22;;;;;;;1999.90;999.90;;;17.60;99.90;;;;;;5052294;28;20408;-71
2023/07/27 07:29:48;;;;;;;1999.90;999.90;;;17.60;99.90;;;;;;5052334;28;20183;-73
2023/07/27 07:32:13;;;;;;;1999.90;999.90;;;17.60;99.90;;;;;;5051842;28;20240;-73
2023/07/27 07:34:39;;;;;;;1999.90;999.90;;;17.60;99.90;;;;;;5052241;28;20223;-72
2023/07/27 07:37:04;;;;;;;1999.90;999.90;;;17.60;99.90;;;;;;5052098;28;20682;-72
2023/07/27 07:39:30;;;;;;;1999.90;999.90;;;17.60;99.90;;;;;;5052233;28;20251;-73
2023/07/27 07:41:56;;;;;;;1999.90;999.90;;;17.50;99.90;;;;;;5051906;28;20592;-72
2023/07/27 07:44:22;;;;;;;1999.90;999.90;;;17.50;99.90;;;;;;5051946;28;20190;-73
2023/07/27 07:46:48;;;;;;;1999.90;999.90;;;17.50;99.90;;;;;;5052281;28;20903;-71
2023/07/27 07:49:13;;;;;;;1999.90;999.90;;;17.60;99.90;;;;;;5051917;28;20171;-72
2023/07/27 07:51:39;;;;;;;1999.90;999.90;;;17.50;99.90;;;;;;5051690;28;20330;-72
2023/07/27 07:54:07;;;;;;;1999.90;999.90;;;17.50;99.90;;;;;;5051930;28;20618;-73
2023/07/27 07:56:33;;;;;;;1999.90;999.90;;;17.50;99.90;;;;;;5051861;28;20708;-73
2023/07/27 07:58:59;;;;;;;1999.90;999.90;;;17.50;99.90;;;;;;5051864;28;20406;-73
2023/07/27 08:01:24;;;;;;;1999.90;999.90;;;17.50;99.90;;;;;;5051622;28;20413;-72
2023/07/27 08:03:50;;;;;;;1999.90;999.90;;;17.50;99.90;;;;;;5051801;28;20185;-73
2023/07/27 08:06:17;;;;;;;1999.90;999.90;;;17.60;99.90;;;;;;5051800;28;20215;-72
2023/07/27 08:08:43;;;;;;;1999.90;999.90;;;17.60;99.90;;;;;;5045217;28;20190;-73
2023/07/27 08:11:09;;;;;;;1999.90;999.90;;;17.60;99.90;;;;;;5046966;28;20971;-73
2023/07/27 08:13:34;;;;;;;1999.90;999.90;;;17.60;99.90;;;;;;5051692;28;20170;-73
2023/07/27 08:16:03;;;;;;;1999.90;999.90;;;17.60;99.90;;;;;;5051452;28;20536;-72
2023/07/27 08:18:29;;;;;;;1999.90;999.90;;;17.70;99.90;;;;;;5051619;28;20189;-73
2023/07/27 08:20:59;;;;;;;1999.90;999.90;;;17.70;99.90;;;;;;5051433;28;20404;-72
2023/07/27 08:23:24;;;;;;;1999.90;999.90;;;17.70;99.90;;;;;;5051161;28;20411;-74
2023/07/27 08:25:50;;;;;;;1999.90;999.90;;;17.80;99.90;;;;;;5047865;28;20504;-73
2023/07/27 08:28:16;;;;;;;1999.90;999.90;;;17.90;99.90;;;;;;5039517;28;20249;-73
2023/07/27 08:30:42;;;;;;;1999.90;999.90;;;17.90;99.90;;;;;;5036342;28;20903;-69
2023/07/27 08:33:08;;;;;;;1999.90;999.90;;;17.90;99.90;;;;;;5048792;28;20179;-73
2023/07/27 08:35:33;;;;;;;1999.90;999.90;;;18.00;99.90;;;;;;5050889;28;20196;-75
2023/07/27 08:37:59;;;;;;;1999.90;999.90;;;18.00;99.90;;;;;;5050973;28;20471;-73
2023/07/27 08:40:25;;;;;;;1999.90;999.90;;;18.10;99.90;;;;;;5050331;28;20326;-73
2023/07/27 08:42:51;;;;;;;1999.90;999.90;;;18.10;99.90;;;;;;5050358;28;20192;-71
2023/07/27 08:45:21;;;;;;;1999.90;999.90;;;18.20;99.90;;;;;;5050881;28;20304;-73
2023/07/27 08:47:48;;;;;;;1999.90;999.90;;;18.20;99.90;;;;;;5050561;28;20527;-71
2023/07/27 08:50:14;;;;;;;1999.90;999.90;;;18.10;99.90;;;;;;5049998;28;20415;-70
2023/07/27 08:52:40;;;;;;;1999.90;999.90;;;18.20;99.90;;;;;;5051074;28;20414;-71
2023/07/27 08:55:06;;;;;;;1999.90;999.90;;;18.30;99.90;;;;;;5050014;28;20417;-71
2023/07/27 08:57:31;;;;;;;1999.90;999.90;;;18.30;99.90;;;;;;5051281;28;20208;-72
2023/07/27 08:59:57;;;;;;;1999.90;999.90;;;18.40;99.90;;;;;;5051182;28;20436;-69
2023/07/27 09:02:23;;;;;;;1999.90;999.90;;;18.40;99.90;;;;;;5050187;28;20551;-70
2023/07/27 09:04:49;;;;;;;1999.90;999.90;;;18.50;99.90;;;;;;5048763;28;20953;-72
2023/07/27 09:07:14;;;;;;;1999.90;999.90;;;18.50;99.90;;;;;;5050329;28;20199;-70
2023/07/27 09:09:40;;;;;;;1999.90;999.90;;;18.50;99.90;;;;;;5049067;28;20470;-70
2023/07/27 09:12:07;;;;;;;1999.90;999.90;;;18.40;99.90;;;;;;5050785;28;20233;-70
2023/07/27 09:14:39;;;;;;;1999.90;999.90;;;18.50;99.90;;;;;;5050974;28;20176;-70
2023/07/27 09:17:07;;;;;;;1999.90;999.90;;;18.40;99.90;;;;;;5051548;28;20403;-69
2023/07/27 09:19:35;;;;;;;1999.90;999.90;;;18.40;99.90;;;;;;5050330;28;20867;-71
2023/07/27 09:22:01;;;;;;;1999.90;999.90;;;18.40;99.90;;;;;;5051724;28;20412;-71
2023/07/27 09:24:33;;;;;;;1999.90;999.90;;;18.40;99.90;;;;;;5050790;28;20472;-70
2023/07/27 09:26:59;;;;;;;1999.90;999.90;;;18.40;99.90;;;;;;5049720;28;20558;-70
2023/07/27 09:29:24;;;;;;;1999.90;999.90;;;18.40;99.90;;;;;;5050224;28;20423;-71
2023/07/27 09:31:52;;;;;;;1999.90;999.90;;;18.40;99.90;;;;;;5049651;28;20292;-71
2023/07/27 09:34:20;;;;;;;1999.90;999.90;;;18.40;99.90;;;;;;5049903;28;20193;-74
2023/07/27 09:36:46;;;;;;;1999.90;999.90;;;18.30;99.90;;;;;;5050745;28;20414;-74
2023/07/27 09:39:20;;;;;;;1999.90;999.90;;;18.30;99.90;;;;;;5051287;28;20440;-71
2023/07/27 09:41:46;;;;;;;1999.90;999.90;;;18.40;99.90;;;;;;5049529;28;20426;-73
2023/07/27 09:44:14;;;;;;;1999.90;999.90;;;18.40;99.90;;;;;;5047898;28;20465;-73
2023/07/27 09:46:41;;;;;;;1999.90;999.90;;;18.50;99.90;;;;;;5049608;28;20188;-73
2023/07/27 09:49:08;;;;;;;1999.90;999.90;;;18.50;99.90;;;;;;5046915;28;20491;-73
2023/07/27 09:51:34;;;;;;;1999.90;999.90;;;18.50;99.90;;;;;;5048425;28;20515;-73
2023/07/27 09:54:00;;;;;;;1999.90;999.90;;;18.60;99.90;;;;;;5031589;28;20424;-73
2023/07/27 09:56:27;;;;;;;1999.90;999.90;;;18.60;99.90;;;;;;5048765;28;20429;-72
2023/07/27 09:58:54;;;;;;;1999.90;999.90;;;18.60;99.90;;;;;;5048108;28;20418;-73
2023/07/27 10:01:19;;;;;;;1999.90;999.90;;;18.60;99.90;;;;;;5047886;28;20421;-72
2023/07/27 10:03:46;;;;;;;1999.90;999.90;;;;;;;;;;5048767;28;20424;-72
2023/07/27 10:06:16;;;;;;;1999.90;999.90;;;18.70;99.90;;;;;;5048217;28;20199;-72
2023/07/27 10:08:42;;;;;;;1999.90;999.90;;;18.80;99.90;;;;;;5048408;28;20962;-72
2023/07/27 10:11:08;;;;;;;1999.90;999.90;;;18.80;99.90;;;;;;5045789;28;20453;-73
2023/07/27 10:13:41;;;;;;;1999.90;999.90;;;18.80;99.90;;;;;;5048577;28;20483;-73
2023/07/27 10:16:19;;;;;;;1999.90;999.90;;;18.90;99.90;;;;;;5046535;28;20432;-72
2023/07/27 10:18:46;;;;;;;1999.90;999.90;;;19.00;99.90;;;;;;5045329;28;20573;-72
2023/07/27 10:21:21;;;;;;;1999.90;999.90;;;19.00;99.90;;;;;;5049042;28;20420;-72
2023/07/27 10:23:59;;;;;;;1999.90;999.90;;;19.00;99.90;;;;;;5049306;28;20912;-72
2023/07/27 10:26:44;;;;;;;1999.90;999.90;;;19.10;99.90;;;;;;5049048;28;20475;-72
2023/07/27 10:29:17;;;;;;;1999.90;999.90;;;19.10;99.90;;;;;;5048767;28;21008;-72
2023/07/27 10:31:44;;;;;;;1999.90;999.90;;;19.30;99.90;;;;;;5048638;28;20469;-73
2023/07/27 10:34:16;;;;;;;1999.90;999.90;;;19.30;99.90;;;;;;5048120;28;20416;-73
2023/07/27 10:36:48;;;;;;;1999.90;999.90;;;19.40;99.90;;;;;;5050425;28;20529;-74
2023/07/27 10:39:15;;;;;;;1999.90;999.90;;;19.50;99.90;;;;;;5048927;28;20419;-72
2023/07/27 10:41:59;;;;;;;1999.90;999.90;;;19.50;99.90;;;;;;5048159;28;20488;-72
2023/07/27 10:44:45;;;;;;;1999.90;999.90;;;19.50;99.90;;;;;;5048258;28;20427;-73
2023/07/27 10:47:31;;;;;;;1999.90;999.90;;;19.40;99.90;;;;;;5048480;28;20443;-73
2023/07/27 10:49:58;;;;;;;1999.90;999.90;;;19.50;99.90;;;;;;5048382;28;20416;-72
2023/07/27 10:52:36;;;;;;;1999.90;999.90;;;19.50;99.90;;;;;;5047526;28;20456;-72
2023/07/27 10:55:04;;;;;;;1999.90;999.90;;;19.50;99.90;;;;;;5048153;28;20942;-74
2023/07/27 10:57:32;;;;;;;1999.90;999.90;;;19.60;99.90;;;;;;5047076;28;20406;-73
2023/07/27 10:59:59;;;;;;;1999.90;999.90;;;19.60;99.90;;;;;;5048574;28;20791;-73
2023/07/27 11:02:30;;;;;;;1999.90;999.90;;;19.60;99.90;;;;;;5047583;28;20964;-73
2023/07/27 11:04:57;;;;;;;1999.90;999.90;;;19.70;99.90;;;;;;5047495;28;20437;-74
2023/07/27 11:07:33;;;;;;;1999.90;999.90;;;19.70;99.90;;;;;;5048107;28;20485;-70
2023/07/27 11:10:22;;;;;;;1999.90;999.90;;;19.80;99.90;;;;;;5048084;28;20784;-69
2023/07/27 11:12:53;;;;;;;1999.90;999.90;;;19.90;99.90;;;;;;5046739;28;20426;-73
2023/07/27 11:15:21;;;;;;;1999.90;999.90;;;19.90;99.90;;;;;;5047659;28;20423;-72
2023/07/27 11:17:48;;;;;;;1999.90;999.90;;;19.90;99.90;;;;;;5047911;28;20434;-73
2023/07/27 11:20:17;;;;;;;1999.90;999.90;;;19.90;99.90;;;;;;5047597;28;21213;-73
2023/07/27 11:22:43;;;;;;;1999.90;999.90;;;20.10;99.90;;;;;;5047319;28;20506;-73
2023/07/27 11:25:09;;;;;;;1999.90;999.90;;;20.10;99.90;;;;;;5047741;28;20508;-73
2023/07/27 11:27:37;;;;;;;1999.90;999.90;;;20.20;99.90;;;;;;5047807;28;20591;-73
2023/07/27 11:30:06;;;;;;;1999.90;999.90;;;20.20;99.90;;;;;;5047488;28;20907;-74
2023/07/27 11:32:32;;;;;;;1999.90;999.90;;;20.20;99.90;;;;;;5046744;28;20541;-70
2023/07/27 11:34:58;;;;;;;1999.90;999.90;;;20.20;99.90;;;;;;5047965;28;20534;-72
2023/07/27 11:37:30;;;;;;;1999.90;999.90;;;20.20;99.90;;;;;;5047468;28;20918;-73
2023/07/27 11:39:56;;;;;;;1999.90;999.90;;;20.10;99.90;;;;;;5046831;28;20182;-73
2023/07/27 11:42:29;;;;;;;1999.90;999.90;;;20.00;99.90;;;;;;5047889;28;20510;-74
2023/07/27 11:44:59;;;;;;;1999.90;999.90;;;19.90;99.90;;;;;;5048066;28;20900;-73
2023/07/27 11:47:25;;;;;;;1999.90;999.90;;;19.90;99.90;;;;;;5046918;28;20427;-72
2023/07/27 11:49:52;;;;;;;1999.90;999.90;;;20.00;99.90;;;;;;5047216;28;20414;-72
2023/07/27 11:52:18;;;;;;;1999.90;999.90;;;19.90;99.90;;;;;;5047264;28;20525;-73
2023/07/27 11:54:45;;;;;;;1999.90;999.90;;;19.90;99.90;;;;;;5046618;28;20430;-73
2023/07/27 11:57:14;;;;;;;1999.90;999.90;;;19.90;99.90;;;;;;5046639;28;20434;-71
2023/07/27 11:59:40;;;;;;;1999.90;999.90;;;19.80;99.90;;;;;;5047137;28;20409;-75